sensor_id;sensor_type;location;lat;lon;timestamp;pressure;altitude;pressure_sealevel;temperature;humidity
76853;BME280;65825;52.232;10.566;2023-01-16T00:01:12;99032.84;;;4.00;76.41
76853;BME280;65825;52.232;10.566;2023-01-16T00:03:38;99029.97;;;4.09;75.57
76853;BME280;65825;52.232;10.566;2023-01-16T00:06:03;99033.44;;;4.10;75.39
76853;BME280;65825;52.232;10.566;2023-01-16T00:08:28;99032.72;;;4.05;75.30
76853;BME280;65825;52.232;10.566;2023-01-16T00:10:53;99025.84;;;4.02;75.65
76853;BME280;65825;52.232;10.566;2023-01-16T00:13:19;99027.31;;;4.11;75.16
76853;BME280;65825;52.232;10.566;2023-01-16T00:15:49;99023.13;;;4.05;75.18
76853;BME280;65825;52.232;10.566;2023-01-16T00:18:15;99032.31;;;3.91;75.84
76853;BME280;65825;52.232;10.566;2023-01-16T00:20:40;99032.09;;;3.97;75.22
76853;BME280;65825;52.232;10.566;2023-01-16T00:23:06;99023.13;;;4.05;74.97
76853;BME280;65825;52.232;10.566;2023-01-16T00:25:31;99028.47;;;4.02;74.91
76853;BME280;65825;52.232;10.566;2023-01-16T00:27:56;99025.94;;;3.99;75.12
76853;BME280;65825;52.232;10.566;2023-01-16T00:30:22;99023.25;;;4.02;74.91
76853;BME280;65825;52.232;10.566;2023-01-16T00:32:48;99018.22;;;3.96;74.90
76853;BME280;65825;52.232;10.566;2023-01-16T00:35:13;99011.13;;;4.00;74.67
76853;BME280;65825;52.232;10.566;2023-01-16T00:37:38;99011.59;;;4.12;74.31
76853;BME280;65825;52.232;10.566;2023-01-16T00:40:04;99010.31;;;3.98;74.85
76853;BME280;65825;52.232;10.566;2023-01-16T00:42:30;99019.91;;;3.97;74.83
76853;BME280;65825;52.232;10.566;2023-01-16T00:44:55;99017.97;;;4.04;74.50
76853;BME280;65825;52.232;10.566;2023-01-16T00:47:20;99018.69;;;4.09;74.22
76853;BME280;65825;52.232;10.566;2023-01-16T00:49:45;99009.56;;;4.20;73.73
76853;BME280;65825;52.232;10.566;2023-01-16T00:52:10;99019.06;;;4.23;73.83
76853;BME280;65825;52.232;10.566;2023-01-16T00:54:36;99008.03;;;4.15;74.25
76853;BME280;65825;52.232;10.566;2023-01-16T00:57:01;99005.06;;;4.25;74.06
76853;BME280;65825;52.232;10.566;2023-01-16T00:59:26;99009.31;;;4.28;73.79
76853;BME280;65825;52.232;10.566;2023-01-16T01:01:51;98997.19;;;4.27;73.74
76853;BME280;65825;52.232;10.566;2023-01-16T01:04:17;98994.78;;;4.21;73.99
76853;BME280;65825;52.232;10.566;2023-01-16T01:06:42;98997.25;;;4.24;73.67
76853;BME280;65825;52.232;10.566;2023-01-16T01:09:08;98992.69;;;4.30;73.67
76853;BME280;65825;52.232;10.566;2023-01-16T01:11:33;98985.72;;;4.31;73.86
76853;BME280;65825;52.232;10.566;2023-01-16T01:13:58;98990.78;;;4.35;73.63
76853;BME280;65825;52.232;10.566;2023-01-16T01:16:24;98986.00;;;4.48;72.83
76853;BME280;65825;52.232;10.566;2023-01-16T01:18:49;98981.50;;;4.51;72.75
76853;BME280;65825;52.232;10.566;2023-01-16T01:21:15;98973.81;;;4.48;72.69
76853;BME280;65825;52.232;10.566;2023-01-16T01:23:40;98982.97;;;4.60;72.44
76853;BME280;65825;52.232;10.566;2023-01-16T01:26:16;98976.06;;;4.57;72.23
76853;BME280;65825;52.232;10.566;2023-01-16T01:28:41;98978.13;;;4.49;73.01
76853;BME280;65825;52.232;10.566;2023-01-16T01:31:09;98964.56;;;4.63;71.92
76853;BME280;65825;52.232;10.566;2023-01-16T01:33:35;98973.19;;;4.65;72.67
76853;BME280;65825;52.232;10.566;2023-01-16T01:36:02;98972.09;;;4.72;71.84
76853;BME280;65825;52.232;10.566;2023-01-16T01:38:28;98969.56;;;4.69;71.90
76853;BME280;65825;52.232;10.566;2023-01-16T01:40:54;98971.53;;;4.62;72.32
76853;BME280;65825;52.232;10.566;2023-01-16T01:43:19;98957.69;;;4.60;72.18
76853;BME280;65825;52.232;10.566;2023-01-16T01:45:51;98950.28;;;4.73;71.76
76853;BME280;65825;52.232;10.566;2023-01-16T01:48:27;98955.97;;;4.84;71.36
76853;BME280;65825;52.232;10.566;2023-01-16T01:51:01;98941.97;;;4.85;71.17
76853;BME280;65825;52.232;10.566;2023-01-16T01:56:06;98935.50;;;4.72;71.78
76853;BME280;65825;52.232;10.566;2023-01-16T01:58:34;98928.16;;;4.81;71.19
76853;BME280;65825;52.232;10.566;2023-01-16T02:01:00;98933.34;;;4.83;71.37
76853;BME280;65825;52.232;10.566;2023-01-16T02:03:36;98939.09;;;4.92;70.54
76853;BME280;65825;52.232;10.566;2023-01-16T02:06:07;98911.91;;;4.96;70.51
76853;BME280;65825;52.232;10.566;2023-01-16T02:08:35;98921.47;;;4.97;70.71
76853;BME280;65825;52.232;10.566;2023-01-16T02:11:07;98915.50;;;4.94;70.30
76853;BME280;65825;52.232;10.566;2023-01-16T02:13:36;98912.88;;;4.94;70.46
76853;BME280;65825;52.232;10.566;2023-01-16T02:16:02;98904.81;;;5.00;70.20
76853;BME280;65825;52.232;10.566;2023-01-16T02:18:46;98895.28;;;4.99;70.26
76853;BME280;65825;52.232;10.566;2023-01-16T02:21:56;98900.16;;;4.85;70.90
76853;BME280;65825;52.232;10.566;2023-01-16T02:30:05;98891.28;;;4.89;70.78
76853;BME280;65825;52.232;10.566;2023-01-16T02:32:49;98886.47;;;4.78;71.58
76853;BME280;65825;52.232;10.566;2023-01-16T02:35:32;98878.69;;;4.77;71.50
76853;BME280;65825;52.232;10.566;2023-01-16T02:38:12;98870.91;;;4.75;71.55
76853;BME280;65825;52.232;10.566;2023-01-16T02:40:54;98865.72;;;4.74;71.55
76853;BME280;65825;52.232;10.566;2023-01-16T02:46:09;98855.97;;;4.56;71.83
76853;BME280;65825;52.232;10.566;2023-01-16T02:48:45;98854.41;;;4.50;71.80
76853;BME280;65825;52.232;10.566;2023-01-16T02:56:30;98845.38;;;4.36;72.51
76853;BME280;65825;52.232;10.566;2023-01-16T02:58:57;98837.34;;;4.40;72.07
76853;BME280;65825;52.232;10.566;2023-01-16T03:01:23;98831.81;;;4.49;72.01
76853;BME280;65825;52.232;10.566;2023-01-16T03:11:43;98814.25;;;4.30;72.97
76853;BME280;65825;52.232;10.566;2023-01-16T03:15:24;98818.16;;;4.18;73.30
76853;BME280;65825;52.232;10.566;2023-01-16T03:17:38;98809.84;;;4.07;73.75
76853;BME280;65825;52.232;10.566;2023-01-16T03:23:15;98797.06;;;3.75;74.42
76853;BME280;65825;52.232;10.566;2023-01-16T03:25:51;98793.66;;;3.73;74.81
76853;BME280;65825;52.232;10.566;2023-01-16T03:31:16;98788.50;;;3.46;75.91
76853;BME280;65825;52.232;10.566;2023-01-16T03:36:40;98785.16;;;3.16;77.58
76853;BME280;65825;52.232;10.566;2023-01-16T03:39:10;98782.09;;;3.04;78.18
76853;BME280;65825;52.232;10.566;2023-01-16T03:41:39;98777.34;;;3.16;77.91
76853;BME280;65825;52.232;10.566;2023-01-16T03:44:11;98772.50;;;3.32;76.94
76853;BME280;65825;52.232;10.566;2023-01-16T03:46:43;98768.47;;;3.48;76.85
76853;BME280;65825;52.232;10.566;2023-01-16T03:49:16;98756.78;;;3.59;76.69
76853;BME280;65825;52.232;10.566;2023-01-16T03:51:46;98751.22;;;3.68;76.16
76853;BME280;65825;52.232;10.566;2023-01-16T03:54:28;98757.66;;;3.58;76.33
76853;BME280;65825;52.232;10.566;2023-01-16T03:57:05;98748.50;;;3.47;76.98
76853;BME280;65825;52.232;10.566;2023-01-16T03:59:33;98740.03;;;3.40;77.02
76853;BME280;65825;52.232;10.566;2023-01-16T04:02:21;98733.25;;;3.35;77.02
76853;BME280;65825;52.232;10.566;2023-01-16T04:04:54;98739.88;;;3.45;77.10
76853;BME280;65825;52.232;10.566;2023-01-16T04:10:11;98738.22;;;3.67;75.60
76853;BME280;65825;52.232;10.566;2023-01-16T04:13:04;98732.94;;;3.68;75.56
76853;BME280;65825;52.232;10.566;2023-01-16T04:15:32;98723.00;;;3.55;76.47
76853;BME280;65825;52.232;10.566;2023-01-16T04:17:59;98719.75;;;3.48;76.76
76853;BME280;65825;52.232;10.566;2023-01-16T04:20:25;98724.44;;;3.39;77.66
76853;BME280;65825;52.232;10.566;2023-01-16T04:22:52;98725.47;;;3.33;77.74
76853;BME280;65825;52.232;10.566;2023-01-16T04:25:18;98713.69;;;3.23;78.02
76853;BME280;65825;52.232;10.566;2023-01-16T04:27:44;98709.56;;;3.16;77.93
76853;BME280;65825;52.232;10.566;2023-01-16T04:30:10;98702.69;;;3.14;78.65
76853;BME280;65825;52.232;10.566;2023-01-16T04:32:38;98699.38;;;3.09;78.28
76853;BME280;65825;52.232;10.566;2023-01-16T04:35:04;98697.72;;;3.06;78.74
76853;BME280;65825;52.232;10.566;2023-01-16T04:37:29;98694.34;;;3.04;78.77
76853;BME280;65825;52.232;10.566;2023-01-16T04:39:54;98686.84;;;2.94;79.53
76853;BME280;65825;52.232;10.566;2023-01-16T04:42:20;98687.06;;;2.88;79.39
76853;BME280;65825;52.232;10.566;2023-01-16T04:44:45;98671.44;;;2.88;79.05
76853;BME280;65825;52.232;10.566;2023-01-16T04:47:10;98678.50;;;2.84;78.88
76853;BME280;65825;52.232;10.566;2023-01-16T04:49:36;98672.84;;;2.72;79.13
76853;BME280;65825;52.232;10.566;2023-01-16T04:52:01;98677.50;;;2.62;80.21
76853;BME280;65825;52.232;10.566;2023-01-16T04:54:26;98668.06;;;2.58;80.67
76853;BME280;65825;52.232;10.566;2023-01-16T04:56:52;98666.63;;;2.50;81.54
76853;BME280;65825;52.232;10.566;2023-01-16T04:59:17;98660.84;;;2.40;80.58
76853;BME280;65825;52.232;10.566;2023-01-16T05:01:43;98662.75;;;2.35;81.68
76853;BME280;65825;52.232;10.566;2023-01-16T05:04:10;98658.38;;;2.36;80.59
76853;BME280;65825;52.232;10.566;2023-01-16T05:06:37;98653.22;;;2.34;80.86
76853;BME280;65825;52.232;10.566;2023-01-16T05:09:03;98644.25;;;2.43;81.68
76853;BME280;65825;52.232;10.566;2023-01-16T05:11:30;98648.47;;;2.47;81.91
76853;BME280;65825;52.232;10.566;2023-01-16T05:13:55;98648.59;;;2.44;81.98
76853;BME280;65825;52.232;10.566;2023-01-16T05:16:20;98646.84;;;2.43;81.13
76853;BME280;65825;52.232;10.566;2023-01-16T05:18:46;98639.16;;;2.40;81.71
76853;BME280;65825;52.232;10.566;2023-01-16T05:21:11;98640.66;;;2.47;82.13
76853;BME280;65825;52.232;10.566;2023-01-16T05:23:37;98631.91;;;2.49;82.09
76853;BME280;65825;52.232;10.566;2023-01-16T05:26:03;98627.56;;;2.50;82.13
76853;BME280;65825;52.232;10.566;2023-01-16T05:28:29;98624.31;;;2.42;81.63
76853;BME280;65825;52.232;10.566;2023-01-16T05:30:55;98616.38;;;2.46;82.14
76853;BME280;65825;52.232;10.566;2023-01-16T05:33:20;98624.25;;;2.45;81.76
76853;BME280;65825;52.232;10.566;2023-01-16T05:35:46;98620.81;;;2.43;81.51
76853;BME280;65825;52.232;10.566;2023-01-16T05:38:12;98610.53;;;2.40;82.62
76853;BME280;65825;52.232;10.566;2023-01-16T05:40:37;98611.63;;;2.33;82.10
76853;BME280;65825;52.232;10.566;2023-01-16T05:43:03;98602.66;;;2.41;82.75
76853;BME280;65825;52.232;10.566;2023-01-16T05:45:29;98604.88;;;2.53;81.77
76853;BME280;65825;52.232;10.566;2023-01-16T05:47:54;98602.91;;;2.60;81.62
76853;BME280;65825;52.232;10.566;2023-01-16T05:50:19;98593.56;;;2.79;81.49
76853;BME280;65825;52.232;10.566;2023-01-16T05:52:44;98594.25;;;2.84;81.50
76853;BME280;65825;52.232;10.566;2023-01-16T05:55:10;98589.38;;;2.99;81.22
76853;BME280;65825;52.232;10.566;2023-01-16T05:57:35;98581.19;;;3.10;80.65
76853;BME280;65825;52.232;10.566;2023-01-16T06:00:00;98585.75;;;3.28;79.78
76853;BME280;65825;52.232;10.566;2023-01-16T06:02:26;98587.00;;;3.41;79.42
76853;BME280;65825;52.232;10.566;2023-01-16T06:04:52;98586.81;;;3.47;79.42
76853;BME280;65825;52.232;10.566;2023-01-16T06:07:17;98581.84;;;3.62;78.45
76853;BME280;65825;52.232;10.566;2023-01-16T06:09:42;98578.72;;;3.99;77.00
76853;BME280;65825;52.232;10.566;2023-01-16T06:12:12;98568.81;;;4.28;76.26
76853;BME280;65825;52.232;10.566;2023-01-16T06:14:39;98567.59;;;4.37;76.89
76853;BME280;65825;52.232;10.566;2023-01-16T06:17:04;98557.91;;;4.39;76.14
76853;BME280;65825;52.232;10.566;2023-01-16T06:19:29;98551.00;;;4.38;76.69
76853;BME280;65825;52.232;10.566;2023-01-16T06:21:54;98552.13;;;4.32;77.21
76853;BME280;65825;52.232;10.566;2023-01-16T06:24:20;98549.16;;;4.20;77.25
76853;BME280;65825;52.232;10.566;2023-01-16T06:26:45;98550.41;;;4.10;77.85
76853;BME280;65825;52.232;10.566;2023-01-16T06:29:10;98539.00;;;3.91;79.15
76853;BME280;65825;52.232;10.566;2023-01-16T06:31:36;98543.88;;;3.77;79.46
76853;BME280;65825;52.232;10.566;2023-01-16T06:34:01;98535.63;;;3.66;79.00
76853;BME280;65825;52.232;10.566;2023-01-16T06:36:26;98526.63;;;3.51;79.86
76853;BME280;65825;52.232;10.566;2023-01-16T06:38:52;98527.97;;;3.38;79.33
76853;BME280;65825;52.232;10.566;2023-01-16T06:41:17;98518.16;;;3.23;80.22
76853;BME280;65825;52.232;10.566;2023-01-16T06:43:42;98510.75;;;3.11;80.87
76853;BME280;65825;52.232;10.566;2023-01-16T06:46:07;98508.47;;;3.02;81.12
76853;BME280;65825;52.232;10.566;2023-01-16T06:48:33;98507.06;;;2.94;81.42
76853;BME280;65825;52.232;10.566;2023-01-16T06:51:00;98504.44;;;2.94;81.37
76853;BME280;65825;52.232;10.566;2023-01-16T06:53:25;98493.59;;;2.81;82.15
76853;BME280;65825;52.232;10.566;2023-01-16T06:55:50;98495.47;;;2.78;81.96
76853;BME280;65825;52.232;10.566;2023-01-16T06:58:16;98482.44;;;2.78;82.21
76853;BME280;65825;52.232;10.566;2023-01-16T07:00:41;98483.59;;;2.71;81.78
76853;BME280;65825;52.232;10.566;2023-01-16T07:03:08;98486.38;;;2.66;82.26
76853;BME280;65825;52.232;10.566;2023-01-16T07:05:34;98476.41;;;2.53;83.00
76853;BME280;65825;52.232;10.566;2023-01-16T07:07:59;98478.31;;;2.48;83.38
76853;BME280;65825;52.232;10.566;2023-01-16T07:10:25;98477.16;;;2.56;82.34
76853;BME280;65825;52.232;10.566;2023-01-16T07:12:51;98474.91;;;2.70;82.46
76853;BME280;65825;52.232;10.566;2023-01-16T07:15:20;98465.81;;;2.82;81.75
76853;BME280;65825;52.232;10.566;2023-01-16T07:18:04;98467.22;;;2.90;81.85
76853;BME280;65825;52.232;10.566;2023-01-16T07:20:54;98469.88;;;2.89;81.56
76853;BME280;65825;52.232;10.566;2023-01-16T07:23:41;98461.16;;;2.67;82.66
76853;BME280;65825;52.232;10.566;2023-01-16T07:26:10;98455.03;;;2.68;83.08
76853;BME280;65825;52.232;10.566;2023-01-16T07:28:37;98457.81;;;2.63;83.67
76853;BME280;65825;52.232;10.566;2023-01-16T07:31:06;98455.19;;;2.63;83.23
76853;BME280;65825;52.232;10.566;2023-01-16T07:33:32;98451.75;;;2.63;83.26
76853;BME280;65825;52.232;10.566;2023-01-16T07:35:57;98455.53;;;2.54;83.87
76853;BME280;65825;52.232;10.566;2023-01-16T07:38:23;98451.75;;;2.63;83.53
76853;BME280;65825;52.232;10.566;2023-01-16T07:40:48;98458.31;;;2.73;82.91
76853;BME280;65825;52.232;10.566;2023-01-16T07:43:13;98450.28;;;2.79;82.62
76853;BME280;65825;52.232;10.566;2023-01-16T07:45:39;98449.13;;;2.87;82.47
76853;BME280;65825;52.232;10.566;2023-01-16T07:48:04;98439.66;;;3.08;82.15
76853;BME280;65825;52.232;10.566;2023-01-16T07:50:30;98433.66;;;3.06;81.69
76853;BME280;65825;52.232;10.566;2023-01-16T07:52:55;98430.66;;;2.93;82.30
76853;BME280;65825;52.232;10.566;2023-01-16T07:55:21;98420.78;;;3.01;82.44
76853;BME280;65825;52.232;10.566;2023-01-16T07:57:46;98415.19;;;3.12;81.40
76853;BME280;65825;52.232;10.566;2023-01-16T08:00:15;98409.91;;;3.13;81.99
76853;BME280;65825;52.232;10.566;2023-01-16T08:02:40;98404.16;;;3.27;81.10
76853;BME280;65825;52.232;10.566;2023-01-16T08:05:06;98405.78;;;3.51;79.78
76853;BME280;65825;52.232;10.566;2023-01-16T08:07:32;98402.47;;;3.69;79.39
76853;BME280;65825;52.232;10.566;2023-01-16T08:09:57;98397.66;;;3.80;78.95
76853;BME280;65825;52.232;10.566;2023-01-16T08:12:23;98389.94;;;4.18;77.37
76853;BME280;65825;52.232;10.566;2023-01-16T08:14:48;98384.38;;;4.06;77.76
76853;BME280;65825;52.232;10.566;2023-01-16T08:17:13;98384.94;;;3.92;78.36
76853;BME280;65825;52.232;10.566;2023-01-16T08:19:39;98382.28;;;3.94;78.03
76853;BME280;65825;52.232;10.566;2023-01-16T08:22:04;98380.81;;;3.87;78.39
76853;BME280;65825;52.232;10.566;2023-01-16T08:24:29;98384.03;;;3.93;78.11
76853;BME280;65825;52.232;10.566;2023-01-16T08:26:55;98387.97;;;4.03;78.11
76853;BME280;65825;52.232;10.566;2023-01-16T08:29:20;98374.19;;;4.20;77.38
76853;BME280;65825;52.232;10.566;2023-01-16T08:31:46;98368.88;;;4.41;76.26
76853;BME280;65825;52.232;10.566;2023-01-16T08:34:11;98368.50;;;4.69;75.28
76853;BME280;65825;52.232;10.566;2023-01-16T08:36:37;98359.41;;;4.96;73.72
76853;BME280;65825;52.232;10.566;2023-01-16T08:39:02;98359.53;;;5.30;73.35
76853;BME280;65825;52.232;10.566;2023-01-16T08:41:27;98353.22;;;5.52;72.27
76853;BME280;65825;52.232;10.566;2023-01-16T08:44:12;98342.13;;;5.64;71.80
76853;BME280;65825;52.232;10.566;2023-01-16T08:46:59;98347.81;;;5.55;71.18
76853;BME280;65825;52.232;10.566;2023-01-16T08:49:44;98334.22;;;5.66;71.57
76853;BME280;65825;52.232;10.566;2023-01-16T08:52:29;98327.25;;;5.48;72.56
76853;BME280;65825;52.232;10.566;2023-01-16T08:54:58;98334.41;;;5.44;72.09
76853;BME280;65825;52.232;10.566;2023-01-16T08:57:24;98332.97;;;5.56;72.41
76853;BME280;65825;52.232;10.566;2023-01-16T08:59:49;98330.84;;;5.64;71.62
76853;BME280;65825;52.232;10.566;2023-01-16T09:02:15;98324.66;;;5.83;71.25
76853;BME280;65825;52.232;10.566;2023-01-16T09:04:40;98325.28;;;6.38;69.02
76853;BME280;65825;52.232;10.566;2023-01-16T09:07:06;98310.84;;;6.94;67.65
76853;BME280;65825;52.232;10.566;2023-01-16T09:09:31;98304.66;;;7.11;67.04
76853;BME280;65825;52.232;10.566;2023-01-16T09:11:57;98298.25;;;7.16;65.01
76853;BME280;65825;52.232;10.566;2023-01-16T09:14:41;98296.97;;;6.92;65.86
76853;BME280;65825;52.232;10.566;2023-01-16T09:17:08;98290.47;;;6.84;65.59
76853;BME280;65825;52.232;10.566;2023-01-16T09:19:34;98291.06;;;6.89;65.86
76853;BME280;65825;52.232;10.566;2023-01-16T09:21:59;98295.94;;;7.10;64.68
76853;BME280;65825;52.232;10.566;2023-01-16T09:24:25;98304.41;;;6.84;64.32
76853;BME280;65825;52.232;10.566;2023-01-16T09:26:50;98293.91;;;6.84;65.37
76853;BME280;65825;52.232;10.566;2023-01-16T09:29:15;98294.44;;;6.91;65.40
76853;BME280;65825;52.232;10.566;2023-01-16T09:31:41;98285.03;;;6.71;65.43
76853;BME280;65825;52.232;10.566;2023-01-16T09:34:06;98287.81;;;6.36;66.49
76853;BME280;65825;52.232;10.566;2023-01-16T09:36:31;98283.09;;;6.42;66.94
76853;BME280;65825;52.232;10.566;2023-01-16T09:38:56;98268.16;;;6.44;66.46
76853;BME280;65825;52.232;10.566;2023-01-16T09:41:22;98279.94;;;6.20;66.75
76853;BME280;65825;52.232;10.566;2023-01-16T09:44:09;98254.69;;;6.19;66.58
76853;BME280;65825;52.232;10.566;2023-01-16T09:46:39;98253.94;;;6.00;67.08
76853;BME280;65825;52.232;10.566;2023-01-16T09:49:31;98247.34;;;5.93;66.74
76853;BME280;65825;52.232;10.566;2023-01-16T09:52:03;98257.19;;;5.88;67.01
76853;BME280;65825;52.232;10.566;2023-01-16T09:54:52;98244.84;;;5.90;67.40
76853;BME280;65825;52.232;10.566;2023-01-16T09:57:38;98225.53;;;5.93;67.24
76853;BME280;65825;52.232;10.566;2023-01-16T10:00:26;98227.41;;;6.06;67.77
76853;BME280;65825;52.232;10.566;2023-01-16T10:02:52;98209.16;;;6.05;66.65
76853;BME280;65825;52.232;10.566;2023-01-16T10:05:18;98201.09;;;6.25;66.93
76853;BME280;65825;52.232;10.566;2023-01-16T10:10:40;98179.91;;;6.91;65.03
76853;BME280;65825;52.232;10.566;2023-01-16T10:13:24;98174.81;;;7.77;61.36
76853;BME280;65825;52.232;10.566;2023-01-16T10:18:54;98166.53;;;8.11;59.84
76853;BME280;65825;52.232;10.566;2023-01-16T10:21:49;98144.94;;;8.88;58.70
76853;BME280;65825;52.232;10.566;2023-01-16T10:27:16;98109.69;;;17.32;37.49
76853;BME280;65825;52.232;10.566;2023-01-16T10:29:51;98105.06;;;19.44;30.37
76853;BME280;65825;52.232;10.566;2023-01-16T10:32:24;98100.06;;;18.17;32.02
76853;BME280;65825;52.232;10.566;2023-01-16T10:34:55;98110.63;;;18.26;32.06
76853;BME280;65825;52.232;10.566;2023-01-16T10:37:22;98084.97;;;18.08;31.17
76853;BME280;65825;52.232;10.566;2023-01-16T10:39:50;98079.94;;;15.65;35.58
76853;BME280;65825;52.232;10.566;2023-01-16T10:42:18;98074.25;;;13.64;40.15
76853;BME280;65825;52.232;10.566;2023-01-16T10:47:48;98071.34;;;14.57;38.57
76853;BME280;65825;52.232;10.566;2023-01-16T10:50:32;98060.19;;;13.63;41.76
76853;BME280;65825;52.232;10.566;2023-01-16T10:52:59;98027.59;;;13.52;41.52
76853;BME280;65825;52.232;10.566;2023-01-16T10:55:25;98020.47;;;11.84;45.86
76853;BME280;65825;52.232;10.566;2023-01-16T10:57:58;98018.03;;;10.68;48.38
76853;BME280;65825;52.232;10.566;2023-01-16T11:00:31;98002.28;;;9.83;51.05
76853;BME280;65825;52.232;10.566;2023-01-16T11:03:00;97991.72;;;9.35;52.31
76853;BME280;65825;52.232;10.566;2023-01-16T11:05:31;97992.13;;;9.04;53.38
76853;BME280;65825;52.232;10.566;2023-01-16T11:08:15;97987.78;;;8.78;54.89
76853;BME280;65825;52.232;10.566;2023-01-16T11:10:43;97982.13;;;8.71;55.24
76853;BME280;65825;52.232;10.566;2023-01-16T11:13:20;97985.06;;;8.28;56.43
76853;BME280;65825;52.232;10.566;2023-01-16T11:16:19;97972.06;;;7.58;58.71
76853;BME280;65825;52.232;10.566;2023-01-16T11:19:24;97969.25;;;7.61;59.30
76853;BME280;65825;52.232;10.566;2023-01-16T11:21:54;97945.38;;;7.23;60.75
76853;BME280;65825;52.232;10.566;2023-01-16T11:24:30;97952.88;;;7.01;60.56
76853;BME280;65825;52.232;10.566;2023-01-16T11:26:57;97934.97;;;7.08;61.01
76853;BME280;65825;52.232;10.566;2023-01-16T11:29:25;97932.19;;;6.83;61.98
76853;BME280;65825;52.232;10.566;2023-01-16T11:31:56;97928.59;;;6.84;61.55
76853;BME280;65825;52.232;10.566;2023-01-16T11:34:24;97915.88;;;6.78;61.96
76853;BME280;65825;52.232;10.566;2023-01-16T11:37:02;97910.50;;;6.79;61.89
76853;BME280;65825;52.232;10.566;2023-01-16T11:39:30;97899.00;;;6.82;61.42
76853;BME280;65825;52.232;10.566;2023-01-16T11:41:58;97888.22;;;7.00;61.07
76853;BME280;65825;52.232;10.566;2023-01-16T11:44:47;97880.56;;;6.97;60.22
76853;BME280;65825;52.232;10.566;2023-01-16T11:47:39;97873.72;;;6.95;61.30
76853;BME280;65825;52.232;10.566;2023-01-16T11:50:21;97867.06;;;7.03;60.98
76853;BME280;65825;52.232;10.566;2023-01-16T11:52:49;97864.66;;;6.86;62.54
76853;BME280;65825;52.232;10.566;2023-01-16T11:55:15;97858.19;;;6.64;63.50
76853;BME280;65825;52.232;10.566;2023-01-16T11:58:02;97833.28;;;6.57;64.23
76853;BME280;65825;52.232;10.566;2023-01-16T12:00:46;97827.28;;;6.69;64.27
76853;BME280;65825;52.232;10.566;2023-01-16T12:09:34;97825.03;;;6.77;61.81
76853;BME280;65825;52.232;10.566;2023-01-16T12:12:09;97808.38;;;6.78;61.65
76853;BME280;65825;52.232;10.566;2023-01-16T12:14:58;97804.91;;;6.77;61.55
76853;BME280;65825;52.232;10.566;2023-01-16T12:17:31;97802.28;;;6.91;60.66
76853;BME280;65825;52.232;10.566;2023-01-16T12:23:04;97799.88;;;7.15;59.27
76853;BME280;65825;52.232;10.566;2023-01-16T12:25:46;97794.00;;;7.11;59.49
76853;BME280;65825;52.232;10.566;2023-01-16T12:28:33;97795.25;;;7.32;58.63
76853;BME280;65825;52.232;10.566;2023-01-16T12:37:13;97774.53;;;7.01;59.29
76853;BME280;65825;52.232;10.566;2023-01-16T12:42:47;97763.44;;;6.84;59.67
76853;BME280;65825;52.232;10.566;2023-01-16T12:45:42;97756.88;;;6.77;59.94
76853;BME280;65825;52.232;10.566;2023-01-16T12:51:08;97741.56;;;6.43;59.63
76853;BME280;65825;52.232;10.566;2023-01-16T12:54:01;97735.84;;;6.36;60.92
76853;BME280;65825;52.232;10.566;2023-01-16T12:59:17;97727.91;;;6.24;60.51
76853;BME280;65825;52.232;10.566;2023-01-16T13:01:47;97724.16;;;6.28;60.44
76853;BME280;65825;52.232;10.566;2023-01-16T13:04:34;97727.44;;;6.45;60.57
76853;BME280;65825;52.232;10.566;2023-01-16T13:07:02;97728.81;;;6.51;59.51
76853;BME280;65825;52.232;10.566;2023-01-16T13:09:40;97707.81;;;6.79;59.54
76853;BME280;65825;52.232;10.566;2023-01-16T13:12:18;97705.25;;;7.18;57.65
76853;BME280;65825;52.232;10.566;2023-01-16T13:15:09;97701.56;;;7.20;57.72
76853;BME280;65825;52.232;10.566;2023-01-16T13:17:48;97706.69;;;7.36;57.69
76853;BME280;65825;52.232;10.566;2023-01-16T13:20:16;97695.38;;;7.60;57.52
76853;BME280;65825;52.232;10.566;2023-01-16T13:22:49;97702.19;;;7.50;56.82
76853;BME280;65825;52.232;10.566;2023-01-16T13:25:24;97697.41;;;7.82;56.10
76853;BME280;65825;52.232;10.566;2023-01-16T13:27:59;97687.84;;;7.68;56.85
76853;BME280;65825;52.232;10.566;2023-01-16T13:30:26;97689.81;;;7.65;56.13
76853;BME280;65825;52.232;10.566;2023-01-16T13:32:56;97678.69;;;7.61;57.65
76853;BME280;65825;52.232;10.566;2023-01-16T13:35:30;97669.44;;;7.56;56.80
76853;BME280;65825;52.232;10.566;2023-01-16T13:40:51;97666.41;;;8.24;56.31
76853;BME280;65825;52.232;10.566;2023-01-16T13:43:30;97659.78;;;8.19;55.26
76853;BME280;65825;52.232;10.566;2023-01-16T13:46:15;97652.59;;;8.82;53.80
76853;BME280;65825;52.232;10.566;2023-01-16T13:48:41;97653.81;;;9.81;50.82
76853;BME280;65825;52.232;10.566;2023-01-16T13:51:13;97635.34;;;10.80;47.77
76853;BME280;65825;52.232;10.566;2023-01-16T13:53:40;97633.19;;;10.85;47.68
76853;BME280;65825;52.232;10.566;2023-01-16T13:56:13;97632.75;;;9.81;50.47
76853;BME280;65825;52.232;10.566;2023-01-16T13:58:41;97635.19;;;9.15;52.39
76853;BME280;65825;52.232;10.566;2023-01-16T14:06:43;97635.84;;;7.86;57.24
76853;BME280;65825;52.232;10.566;2023-01-16T14:14:48;97634.50;;;7.04;60.01
76853;BME280;65825;52.232;10.566;2023-01-16T14:20:41;97638.75;;;6.66;62.17
76853;BME280;65825;52.232;10.566;2023-01-16T14:23:36;97638.41;;;6.58;61.68
76853;BME280;65825;52.232;10.566;2023-01-16T14:28:54;97657.81;;;6.41;63.37
76853;BME280;65825;52.232;10.566;2023-01-16T14:31:24;97635.91;;;6.42;63.70
76853;BME280;65825;52.232;10.566;2023-01-16T14:33:55;97638.44;;;6.44;62.73
76853;BME280;65825;52.232;10.566;2023-01-16T14:36:23;97622.88;;;6.28;63.34
76853;BME280;65825;52.232;10.566;2023-01-16T14:38:49;97621.19;;;6.13;64.13
76853;BME280;65825;52.232;10.566;2023-01-16T14:41:27;97625.59;;;6.13;64.88
76853;BME280;65825;52.232;10.566;2023-01-16T14:44:21;97626.44;;;5.99;64.96
76853;BME280;65825;52.232;10.566;2023-01-16T14:50:10;97605.59;;;5.84;65.60
76853;BME280;65825;52.232;10.566;2023-01-16T14:53:12;97599.41;;;5.71;66.38